sensor_id;sensor_type;location;lat;lon;timestamp;P1;durP1;ratioP1;P2;durP2;ratioP2
68821;SDS011;55834;50.870;4.606;2024-02-26T00:01:25;1.20;;;1.10;;
68821;SDS011;55834;50.870;4.606;2024-02-26T00:03:50;1.30;;;1.20;;
68821;SDS011;55834;50.870;4.606;2024-02-26T00:06:15;2.37;;;1.13;;
68821;SDS011;55834;50.870;4.606;2024-02-26T00:08:41;1.55;;;1.42;;
68821;SDS011;55834;50.870;4.606;2024-02-26T00:11:06;1.98;;;1.20;;
68821;SDS011;55834;50.870;4.606;2024-02-26T00:13:32;3.37;;;1.37;;
68821;SDS011;55834;50.870;4.606;2024-02-26T00:15:57;1.27;;;0.82;;
68821;SDS011;55834;50.870;4.606;2024-02-26T00:18:22;3.67;;;1.13;;
68821;SDS011;55834;50.870;4.606;2024-02-26T00:20:48;2.20;;;1.13;;
68821;SDS011;55834;50.870;4.606;2024-02-26T00:23:16;1.70;;;1.47;;
68821;SDS011;55834;50.870;4.606;2024-02-26T00:25:42;2.33;;;1.75;;
68821;SDS011;55834;50.870;4.606;2024-02-26T00:28:08;2.05;;;1.45;;
68821;SDS011;55834;50.870;4.606;2024-02-26T00:30:35;1.23;;;1.17;;
68821;SDS011;55834;50.870;4.606;2024-02-26T00:33:00;1.13;;;1.02;;
68821;SDS011;55834;50.870;4.606;2024-02-26T00:35:25;2.07;;;1.20;;
68821;SDS011;55834;50.870;4.606;2024-02-26T00:37:51;1.37;;;1.30;;
68821;SDS011;55834;50.870;4.606;2024-02-26T00:40:16;1.45;;;1.08;;
68821;SDS011;55834;50.870;4.606;2024-02-26T00:42:42;2.63;;;0.80;;
68821;SDS011;55834;50.870;4.606;2024-02-26T00:45:11;1.08;;;0.85;;
68821;SDS011;55834;50.870;4.606;2024-02-26T00:47:37;1.38;;;1.17;;
68821;SDS011;55834;50.870;4.606;2024-02-26T00:50:02;2.35;;;1.77;;
68821;SDS011;55834;50.870;4.606;2024-02-26T00:52:28;1.73;;;1.15;;
68821;SDS011;55834;50.870;4.606;2024-02-26T00:54:53;1.83;;;1.70;;
68821;SDS011;55834;50.870;4.606;2024-02-26T00:57:18;2.80;;;1.27;;
68821;SDS011;55834;50.870;4.606;2024-02-26T00:59:44;0.97;;;0.97;;
68821;SDS011;55834;50.870;4.606;2024-02-26T01:02:09;1.35;;;0.80;;
68821;SDS011;55834;50.870;4.606;2024-02-26T01:04:34;3.50;;;1.37;;
68821;SDS011;55834;50.870;4.606;2024-02-26T01:07:00;1.25;;;0.98;;
68821;SDS011;55834;50.870;4.606;2024-02-26T01:09:25;1.50;;;0.90;;
68821;SDS011;55834;50.870;4.606;2024-02-26T01:11:51;1.57;;;1.00;;
68821;SDS011;55834;50.870;4.606;2024-02-26T01:14:16;2.07;;;1.30;;
68821;SDS011;55834;50.870;4.606;2024-02-26T01:16:41;2.78;;;1.20;;
68821;SDS011;55834;50.870;4.606;2024-02-26T01:19:07;1.15;;;1.00;;
68821;SDS011;55834;50.870;4.606;2024-02-26T01:21:32;1.33;;;1.20;;
68821;SDS011;55834;50.870;4.606;2024-02-26T01:23:57;1.10;;;0.80;;
68821;SDS011;55834;50.870;4.606;2024-02-26T01:26:23;3.00;;;1.40;;
68821;SDS011;55834;50.870;4.606;2024-02-26T01:28:48;0.77;;;0.60;;
68821;SDS011;55834;50.870;4.606;2024-02-26T01:31:14;0.77;;;0.77;;
68821;SDS011;55834;50.870;4.606;2024-02-26T01:33:39;1.07;;;0.50;;
68821;SDS011;55834;50.870;4.606;2024-02-26T01:36:05;1.35;;;0.90;;
68821;SDS011;55834;50.870;4.606;2024-02-26T01:38:31;1.50;;;1.05;;
68821;SDS011;55834;50.870;4.606;2024-02-26T01:40:56;1.40;;;0.88;;
68821;SDS011;55834;50.870;4.606;2024-02-26T01:43:22;0.80;;;0.80;;
68821;SDS011;55834;50.870;4.606;2024-02-26T01:45:47;1.15;;;1.05;;
68821;SDS011;55834;50.870;4.606;2024-02-26T01:48:13;1.30;;;1.20;;
68821;SDS011;55834;50.870;4.606;2024-02-26T01:50:38;1.23;;;0.98;;
68821;SDS011;55834;50.870;4.606;2024-02-26T01:53:05;1.25;;;0.68;;
68821;SDS011;55834;50.870;4.606;2024-02-26T01:55:32;1.55;;;0.75;;
68821;SDS011;55834;50.870;4.606;2024-02-26T01:57:58;0.98;;;0.90;;
68821;SDS011;55834;50.870;4.606;2024-02-26T02:00:24;1.67;;;0.68;;
68821;SDS011;55834;50.870;4.606;2024-02-26T02:02:50;0.73;;;0.63;;
68821;SDS011;55834;50.870;4.606;2024-02-26T02:05:16;1.38;;;1.08;;
68821;SDS011;55834;50.870;4.606;2024-02-26T02:07:45;0.80;;;0.70;;
68821;SDS011;55834;50.870;4.606;2024-02-26T02:10:11;1.73;;;0.70;;
68821;SDS011;55834;50.870;4.606;2024-02-26T02:12:37;1.77;;;1.05;;
68821;SDS011;55834;50.870;4.606;2024-02-26T02:15:05;1.38;;;0.80;;
68821;SDS011;55834;50.870;4.606;2024-02-26T02:17:31;1.63;;;1.17;;
68821;SDS011;55834;50.870;4.606;2024-02-26T02:19:56;0.70;;;0.70;;
68821;SDS011;55834;50.870;4.606;2024-02-26T02:22:22;1.85;;;0.80;;
68821;SDS011;55834;50.870;4.606;2024-02-26T02:24:48;0.77;;;0.57;;
68821;SDS011;55834;50.870;4.606;2024-02-26T02:27:14;1.05;;;0.80;;
68821;SDS011;55834;50.870;4.606;2024-02-26T02:29:40;0.90;;;0.90;;
68821;SDS011;55834;50.870;4.606;2024-02-26T02:32:06;2.65;;;0.80;;
68821;SDS011;55834;50.870;4.606;2024-02-26T02:34:31;0.50;;;0.50;;
68821;SDS011;55834;50.870;4.606;2024-02-26T02:39:24;0.73;;;0.60;;
68821;SDS011;55834;50.870;4.606;2024-02-26T02:41:49;1.50;;;0.80;;
68821;SDS011;55834;50.870;4.606;2024-02-26T02:44:15;4.50;;;1.88;;
68821;SDS011;55834;50.870;4.606;2024-02-26T02:46:40;2.00;;;0.77;;
68821;SDS011;55834;50.870;4.606;2024-02-26T02:49:09;0.63;;;0.63;;
68821;SDS011;55834;50.870;4.606;2024-02-26T02:51:37;0.77;;;0.70;;
68821;SDS011;55834;50.870;4.606;2024-02-26T02:54:03;0.70;;;0.63;;
68821;SDS011;55834;50.870;4.606;2024-02-26T02:56:28;2.90;;;1.00;;
68821;SDS011;55834;50.870;4.606;2024-02-26T02:58:54;0.95;;;0.90;;
68821;SDS011;55834;50.870;4.606;2024-02-26T03:01:19;2.10;;;1.27;;
68821;SDS011;55834;50.870;4.606;2024-02-26T03:03:45;0.87;;;0.60;;
68821;SDS011;55834;50.870;4.606;2024-02-26T03:06:10;1.20;;;1.10;;
68821;SDS011;55834;50.870;4.606;2024-02-26T03:08:35;3.90;;;1.33;;
68821;SDS011;55834;50.870;4.606;2024-02-26T03:11:04;1.15;;;1.00;;
68821;SDS011;55834;50.870;4.606;2024-02-26T03:13:30;1.25;;;0.70;;
68821;SDS011;55834;50.870;4.606;2024-02-26T03:15:55;2.17;;;0.63;;
68821;SDS011;55834;50.870;4.606;2024-02-26T03:18:22;1.95;;;0.82;;
68821;SDS011;55834;50.870;4.606;2024-02-26T03:20:47;2.00;;;0.70;;
68821;SDS011;55834;50.870;4.606;2024-02-26T03:23:13;0.77;;;0.73;;
68821;SDS011;55834;50.870;4.606;2024-02-26T03:25:41;2.05;;;1.45;;
68821;SDS011;55834;50.870;4.606;2024-02-26T03:28:07;1.80;;;1.20;;
68821;SDS011;55834;50.870;4.606;2024-02-26T03:30:33;1.40;;;1.30;;
68821;SDS011;55834;50.870;4.606;2024-02-26T03:32:58;0.87;;;0.80;;
68821;SDS011;55834;50.870;4.606;2024-02-26T03:35:23;1.53;;;0.93;;
68821;SDS011;55834;50.870;4.606;2024-02-26T03:37:49;1.77;;;0.90;;
68821;SDS011;55834;50.870;4.606;2024-02-26T03:40:16;0.60;;;0.60;;
68821;SDS011;55834;50.870;4.606;2024-02-26T03:42:43;1.08;;;0.98;;
68821;SDS011;55834;50.870;4.606;2024-02-26T03:45:09;2.70;;;1.50;;
68821;SDS011;55834;50.870;4.606;2024-02-26T03:47:34;1.10;;;1.00;;
68821;SDS011;55834;50.870;4.606;2024-02-26T03:50:00;1.33;;;1.23;;
68821;SDS011;55834;50.870;4.606;2024-02-26T03:52:25;0.97;;;0.90;;
68821;SDS011;55834;50.870;4.606;2024-02-26T03:54:50;1.70;;;0.80;;
68821;SDS011;55834;50.870;4.606;2024-02-26T03:57:16;1.47;;;1.13;;
68821;SDS011;55834;50.870;4.606;2024-02-26T03:59:41;1.10;;;0.98;;
68821;SDS011;55834;50.870;4.606;2024-02-26T04:02:06;1.60;;;1.47;;
68821;SDS011;55834;50.870;4.606;2024-02-26T04:04:35;1.07;;;0.97;;
68821;SDS011;55834;50.870;4.606;2024-02-26T04:07:00;2.35;;;1.00;;
68821;SDS011;55834;50.870;4.606;2024-02-26T04:09:25;1.27;;;1.17;;
68821;SDS011;55834;50.870;4.606;2024-02-26T04:11:51;2.17;;;1.23;;
68821;SDS011;55834;50.870;4.606;2024-02-26T04:14:16;1.52;;;1.38;;
68821;SDS011;55834;50.870;4.606;2024-02-26T04:16:41;2.33;;;1.17;;
68821;SDS011;55834;50.870;4.606;2024-02-26T04:19:08;1.50;;;1.20;;
68821;SDS011;55834;50.870;4.606;2024-02-26T04:21:34;1.55;;;1.20;;
68821;SDS011;55834;50.870;4.606;2024-02-26T04:24:00;1.27;;;1.17;;
68821;SDS011;55834;50.870;4.606;2024-02-26T04:26:27;2.60;;;1.70;;
68821;SDS011;55834;50.870;4.606;2024-02-26T04:28:53;1.52;;;1.42;;
68821;SDS011;55834;50.870;4.606;2024-02-26T04:31:19;2.13;;;2.00;;
68821;SDS011;55834;50.870;4.606;2024-02-26T04:33:44;1.33;;;1.20;;
68821;SDS011;55834;50.870;4.606;2024-02-26T04:36:15;1.33;;;1.17;;
68821;SDS011;55834;50.870;4.606;2024-02-26T04:38:43;1.58;;;1.48;;
68821;SDS011;55834;50.870;4.606;2024-02-26T04:41:09;1.88;;;1.77;;
68821;SDS011;55834;50.870;4.606;2024-02-26T04:43:35;3.90;;;2.07;;
68821;SDS011;55834;50.870;4.606;2024-02-26T04:46:09;1.63;;;1.20;;
68821;SDS011;55834;50.870;4.606;2024-02-26T04:48:38;1.98;;;1.85;;
68821;SDS011;55834;50.870;4.606;2024-02-26T04:51:04;3.97;;;2.00;;
68821;SDS011;55834;50.870;4.606;2024-02-26T04:53:30;1.73;;;1.52;;
68821;SDS011;55834;50.870;4.606;2024-02-26T04:55:55;2.22;;;2.00;;
68821;SDS011;55834;50.870;4.606;2024-02-26T04:58:21;3.80;;;2.70;;
68821;SDS011;55834;50.870;4.606;2024-02-26T05:00:46;2.88;;;2.22;;
68821;SDS011;55834;50.870;4.606;2024-02-26T05:03:11;2.53;;;2.33;;
68821;SDS011;55834;50.870;4.606;2024-02-26T05:05:38;3.25;;;2.00;;
68821;SDS011;55834;50.870;4.606;2024-02-26T05:08:05;2.70;;;2.50;;
68821;SDS011;55834;50.870;4.606;2024-02-26T05:10:31;3.65;;;3.03;;
68821;SDS011;55834;50.870;4.606;2024-02-26T05:12:57;6.00;;;2.33;;
68821;SDS011;55834;50.870;4.606;2024-02-26T05:15:22;2.72;;;1.92;;
68821;SDS011;55834;50.870;4.606;2024-02-26T05:17:48;2.73;;;2.53;;
68821;SDS011;55834;50.870;4.606;2024-02-26T05:20:13;2.97;;;2.70;;
68821;SDS011;55834;50.870;4.606;2024-02-26T05:22:38;3.95;;;2.65;;
68821;SDS011;55834;50.870;4.606;2024-02-26T05:25:04;3.10;;;2.70;;
68821;SDS011;55834;50.870;4.606;2024-02-26T05:27:29;4.07;;;2.90;;
68821;SDS011;55834;50.870;4.606;2024-02-26T05:29:55;4.45;;;4.05;;
68821;SDS011;55834;50.870;4.606;2024-02-26T05:32:21;5.07;;;4.50;;
68821;SDS011;55834;50.870;4.606;2024-02-26T05:34:46;3.17;;;2.60;;
68821;SDS011;55834;50.870;4.606;2024-02-26T05:37:12;3.93;;;3.63;;
68821;SDS011;55834;50.870;4.606;2024-02-26T05:39:37;5.33;;;3.50;;
68821;SDS011;55834;50.870;4.606;2024-02-26T05:42:03;5.75;;;5.22;;
68821;SDS011;55834;50.870;4.606;2024-02-26T05:44:29;4.88;;;3.63;;
68821;SDS011;55834;50.870;4.606;2024-02-26T05:46:54;5.00;;;4.10;;
68821;SDS011;55834;50.870;4.606;2024-02-26T05:49:20;4.87;;;4.10;;
68821;SDS011;55834;50.870;4.606;2024-02-26T05:51:59;15.13;;;4.90;;
68821;SDS011;55834;50.870;4.606;2024-02-26T05:54:24;6.43;;;4.22;;
68821;SDS011;55834;50.870;4.606;2024-02-26T05:56:56;7.50;;;5.20;;
68821;SDS011;55834;50.870;4.606;2024-02-26T05:59:21;5.43;;;4.93;;
68821;SDS011;55834;50.870;4.606;2024-02-26T06:01:52;8.35;;;5.05;;
68821;SDS011;55834;50.870;4.606;2024-02-26T06:04:18;6.13;;;5.45;;
68821;SDS011;55834;50.870;4.606;2024-02-26T06:07:09;8.57;;;4.90;;
68821;SDS011;55834;50.870;4.606;2024-02-26T06:09:46;7.45;;;3.95;;
68821;SDS011;55834;50.870;4.606;2024-02-26T06:12:11;5.40;;;4.82;;
68821;SDS011;55834;50.870;4.606;2024-02-26T06:14:49;5.65;;;4.25;;
68821;SDS011;55834;50.870;4.606;2024-02-26T06:17:32;7.18;;;4.82;;
68821;SDS011;55834;50.870;4.606;2024-02-26T06:20:00;7.35;;;4.72;;
68821;SDS011;55834;50.870;4.606;2024-02-26T06:22:26;6.70;;;4.00;;
68821;SDS011;55834;50.870;4.606;2024-02-26T06:25:06;6.78;;;6.13;;
68821;SDS011;55834;50.870;4.606;2024-02-26T06:27:32;6.95;;;5.22;;
68821;SDS011;55834;50.870;4.606;2024-02-26T06:30:14;5.95;;;4.57;;
68821;SDS011;55834;50.870;4.606;2024-02-26T06:32:45;5.60;;;4.57;;
68821;SDS011;55834;50.870;4.606;2024-02-26T06:35:13;6.93;;;5.22;;
68821;SDS011;55834;50.870;4.606;2024-02-26T06:37:41;6.05;;;4.97;;
68821;SDS011;55834;50.870;4.606;2024-02-26T06:40:06;7.93;;;6.27;;
68821;SDS011;55834;50.870;4.606;2024-02-26T06:42:32;5.65;;;4.93;;
68821;SDS011;55834;50.870;4.606;2024-02-26T06:44:58;8.25;;;6.25;;
68821;SDS011;55834;50.870;4.606;2024-02-26T06:47:32;5.78;;;5.18;;
68821;SDS011;55834;50.870;4.606;2024-02-26T06:49:58;6.13;;;5.53;;
68821;SDS011;55834;50.870;4.606;2024-02-26T06:52:23;6.07;;;5.05;;
68821;SDS011;55834;50.870;4.606;2024-02-26T06:54:50;6.55;;;5.95;;
68821;SDS011;55834;50.870;4.606;2024-02-26T06:57:17;5.65;;;4.75;;
68821;SDS011;55834;50.870;4.606;2024-02-26T06:59:46;7.88;;;5.63;;
68821;SDS011;55834;50.870;4.606;2024-02-26T07:02:15;6.57;;;5.97;;
68821;SDS011;55834;50.870;4.606;2024-02-26T07:04:41;7.38;;;5.60;;
68821;SDS011;55834;50.870;4.606;2024-02-26T07:07:07;6.35;;;5.15;;
68821;SDS011;55834;50.870;4.606;2024-02-26T07:09:33;6.15;;;5.50;;
68821;SDS011;55834;50.870;4.606;2024-02-26T07:11:58;5.70;;;4.70;;
68821;SDS011;55834;50.870;4.606;2024-02-26T07:14:24;8.27;;;6.33;;
68821;SDS011;55834;50.870;4.606;2024-02-26T07:16:49;6.63;;;5.85;;
68821;SDS011;55834;50.870;4.606;2024-02-26T07:19:15;5.55;;;4.80;;
68821;SDS011;55834;50.870;4.606;2024-02-26T07:21:41;5.78;;;5.15;;
68821;SDS011;55834;50.870;4.606;2024-02-26T07:24:06;7.47;;;6.77;;
68821;SDS011;55834;50.870;4.606;2024-02-26T07:26:32;6.03;;;5.43;;
68821;SDS011;55834;50.870;4.606;2024-02-26T07:28:57;8.32;;;6.82;;
68821;SDS011;55834;50.870;4.606;2024-02-26T07:31:23;6.93;;;6.20;;
68821;SDS011;55834;50.870;4.606;2024-02-26T07:33:48;7.47;;;6.72;;
68821;SDS011;55834;50.870;4.606;2024-02-26T07:36:14;7.90;;;6.95;;
68821;SDS011;55834;50.870;4.606;2024-02-26T07:38:39;7.72;;;7.05;;
68821;SDS011;55834;50.870;4.606;2024-02-26T07:41:05;6.67;;;5.70;;
68821;SDS011;55834;50.870;4.606;2024-02-26T07:43:30;7.30;;;4.80;;
68821;SDS011;55834;50.870;4.606;2024-02-26T07:45:56;7.88;;;7.07;;
68821;SDS011;55834;50.870;4.606;2024-02-26T07:48:22;6.80;;;5.85;;
68821;SDS011;55834;50.870;4.606;2024-02-26T07:50:47;6.47;;;4.70;;
68821;SDS011;55834;50.870;4.606;2024-02-26T07:53:13;5.27;;;4.80;;
68821;SDS011;55834;50.870;4.606;2024-02-26T07:55:40;5.68;;;5.05;;
68821;SDS011;55834;50.870;4.606;2024-02-26T07:58:06;7.40;;;6.28;;
68821;SDS011;55834;50.870;4.606;2024-02-26T08:00:37;4.70;;;4.25;;
68821;SDS011;55834;50.870;4.606;2024-02-26T08:03:08;5.63;;;5.00;;
68821;SDS011;55834;50.870;4.606;2024-02-26T08:05:38;5.75;;;5.20;;
68821;SDS011;55834;50.870;4.606;2024-02-26T08:08:08;5.90;;;4.97;;
68821;SDS011;55834;50.870;4.606;2024-02-26T08:10:33;4.82;;;4.32;;
68821;SDS011;55834;50.870;4.606;2024-02-26T08:13:01;6.13;;;4.45;;
68821;SDS011;55834;50.870;4.606;2024-02-26T08:15:35;6.13;;;5.50;;
68821;SDS011;55834;50.870;4.606;2024-02-26T08:18:04;5.60;;;5.07;;
68821;SDS011;55834;50.870;4.606;2024-02-26T08:20:30;5.72;;;5.00;;
68821;SDS011;55834;50.870;4.606;2024-02-26T08:22:55;6.60;;;5.90;;
68821;SDS011;55834;50.870;4.606;2024-02-26T08:25:22;5.43;;;4.93;;
68821;SDS011;55834;50.870;4.606;2024-02-26T08:27:47;7.53;;;5.20;;
68821;SDS011;55834;50.870;4.606;2024-02-26T08:30:13;5.70;;;5.20;;
68821;SDS011;55834;50.870;4.606;2024-02-26T08:32:42;4.60;;;4.15;;
68821;SDS011;55834;50.870;4.606;2024-02-26T08:35:08;6.07;;;5.47;;
68821;SDS011;55834;50.870;4.606;2024-02-26T08:37:33;6.05;;;5.55;;
68821;SDS011;55834;50.870;4.606;2024-02-26T08:39:58;7.37;;;6.70;;
68821;SDS011;55834;50.870;4.606;2024-02-26T08:42:24;6.23;;;5.73;;
68821;SDS011;55834;50.870;4.606;2024-02-26T08:44:49;6.17;;;5.10;;
68821;SDS011;55834;50.870;4.606;2024-02-26T08:47:14;6.40;;;5.80;;
68821;SDS011;55834;50.870;4.606;2024-02-26T08:49:44;7.03;;;6.32;;
68821;SDS011;55834;50.870;4.606;2024-02-26T08:52:10;6.90;;;6.30;;
68821;SDS011;55834;50.870;4.606;2024-02-26T08:54:35;6.10;;;5.60;;
68821;SDS011;55834;50.870;4.606;2024-02-26T08:57:01;5.65;;;5.15;;
68821;SDS011;55834;50.870;4.606;2024-02-26T08:59:26;4.57;;;4.05;;
68821;SDS011;55834;50.870;4.606;2024-02-26T09:01:51;5.80;;;5.10;;
68821;SDS011;55834;50.870;4.606;2024-02-26T09:04:17;5.50;;;5.00;;
68821;SDS011;55834;50.870;4.606;2024-02-26T09:06:42;5.10;;;4.53;;
68821;SDS011;55834;50.870;4.606;2024-02-26T09:09:09;5.40;;;4.82;;
68821;SDS011;55834;50.870;4.606;2024-02-26T09:11:34;4.97;;;4.47;;
68821;SDS011;55834;50.870;4.606;2024-02-26T09:14:00;7.13;;;6.45;;
68821;SDS011;55834;50.870;4.606;2024-02-26T09:16:25;5.93;;;5.33;;
68821;SDS011;55834;50.870;4.606;2024-02-26T09:18:51;4.82;;;4.28;;
68821;SDS011;55834;50.870;4.606;2024-02-26T09:21:16;5.07;;;4.57;;
68821;SDS011;55834;50.870;4.606;2024-02-26T09:23:47;6.55;;;5.82;;
68821;SDS011;55834;50.870;4.606;2024-02-26T09:26:13;6.80;;;6.20;;
68821;SDS011;55834;50.870;4.606;2024-02-26T09:28:38;6.00;;;5.45;;
68821;SDS011;55834;50.870;4.606;2024-02-26T09:31:04;5.70;;;4.93;;
68821;SDS011;55834;50.870;4.606;2024-02-26T09:33:31;6.30;;;5.80;;
68821;SDS011;55834;50.870;4.606;2024-02-26T09:35:57;5.55;;;4.72;;
68821;SDS011;55834;50.870;4.606;2024-02-26T09:38:22;5.07;;;4.63;;
68821;SDS011;55834;50.870;4.606;2024-02-26T09:40:48;5.85;;;5.25;;
68821;SDS011;55834;50.870;4.606;2024-02-26T09:43:14;5.85;;;4.68;;
68821;SDS011;55834;50.870;4.606;2024-02-26T09:45:46;5.45;;;4.85;;
68821;SDS011;55834;50.870;4.606;2024-02-26T09:48:12;5.82;;;5.22;;
68821;SDS011;55834;50.870;4.606;2024-02-26T09:50:40;5.68;;;5.18;;
68821;SDS011;55834;50.870;4.606;2024-02-26T09:53:08;6.43;;;4.95;;
68821;SDS011;55834;50.870;4.606;2024-02-26T09:55:35;6.38;;;5.78;;
68821;SDS011;55834;50.870;4.606;2024-02-26T09:58:01;6.95;;;5.05;;
68821;SDS011;55834;50.870;4.606;2024-02-26T10:00:30;5.50;;;5.10;;
68821;SDS011;55834;50.870;4.606;2024-02-26T10:02:59;5.78;;;5.00;;
68821;SDS011;55834;50.870;4.606;2024-02-26T10:05:28;4.80;;;4.40;;
68821;SDS011;55834;50.870;4.606;2024-02-26T10:07:54;5.38;;;4.50;;
68821;SDS011;55834;50.870;4.606;2024-02-26T10:10:22;5.18;;;4.35;;
68821;SDS011;55834;50.870;4.606;2024-02-26T10:12:48;5.75;;;4.18;;
68821;SDS011;55834;50.870;4.606;2024-02-26T10:15:14;5.88;;;5.07;;
68821;SDS011;55834;50.870;4.606;2024-02-26T10:17:39;4.78;;;4.40;;
68821;SDS011;55834;50.870;4.606;2024-02-26T10:20:16;5.75;;;4.50;;
68821;SDS011;55834;50.870;4.606;2024-02-26T10:22:43;4.90;;;4.43;;
68821;SDS011;55834;50.870;4.606;2024-02-26T10:25:09;5.38;;;3.65;;
68821;SDS011;55834;50.870;4.606;2024-02-26T10:27:34;4.82;;;4.32;;
68821;SDS011;55834;50.870;4.606;2024-02-26T10:30:03;4.25;;;3.85;;
68821;SDS011;55834;50.870;4.606;2024-02-26T10:32:40;5.55;;;4.93;;
68821;SDS011;55834;50.870;4.606;2024-02-26T10:35:08;5.03;;;4.10;;
68821;SDS011;55834;50.870;4.606;2024-02-26T10:37:33;4.80;;;4.20;;
68821;SDS011;55834;50.870;4.606;2024-02-26T10:39:59;4.77;;;3.93;;
68821;SDS011;55834;50.870;4.606;2024-02-26T10:42:25;3.83;;;3.53;;
68821;SDS011;55834;50.870;4.606;2024-02-26T10:44:51;3.50;;;3.20;;
68821;SDS011;55834;50.870;4.606;2024-02-26T10:47:16;4.23;;;3.50;;
68821;SDS011;55834;50.870;4.606;2024-02-26T10:49:45;6.65;;;3.72;;
68821;SDS011;55834;50.870;4.606;2024-02-26T10:52:12;3.92;;;3.55;;
68821;SDS011;55834;50.870;4.606;2024-02-26T10:54:40;3.83;;;3.45;;
68821;SDS011;55834;50.870;4.606;2024-02-26T10:57:08;3.22;;;2.92;;
68821;SDS011;55834;50.870;4.606;2024-02-26T10:59:34;4.43;;;3.95;;
68821;SDS011;55834;50.870;4.606;2024-02-26T11:02:01;5.18;;;2.67;;
68821;SDS011;55834;50.870;4.606;2024-02-26T11:04:28;3.70;;;3.40;;
68821;SDS011;55834;50.870;4.606;2024-02-26T11:06:56;4.95;;;4.32;;
68821;SDS011;55834;50.870;4.606;2024-02-26T11:11:48;4.80;;;3.35;;
68821;SDS011;55834;50.870;4.606;2024-02-26T11:14:19;3.58;;;3.28;;
68821;SDS011;55834;50.870;4.606;2024-02-26T11:16:45;3.95;;;3.67;;
68821;SDS011;55834;50.870;4.606;2024-02-26T11:19:12;2.90;;;2.70;;
68821;SDS011;55834;50.870;4.606;2024-02-26T11:21:39;3.28;;;3.03;;
68821;SDS011;55834;50.870;4.606;2024-02-26T11:24:11;3.33;;;3.03;;
68821;SDS011;55834;50.870;4.606;2024-02-26T11:26:55;2.53;;;2.33;;
68821;SDS011;55834;50.870;4.606;2024-02-26T11:29:27;2.35;;;2.15;;
68821;SDS011;55834;50.870;4.606;2024-02-26T11:31:58;3.05;;;2.85;;
68821;SDS011;55834;50.870;4.606;2024-02-26T11:34:25;3.78;;;3.45;;
68821;SDS011;55834;50.870;4.606;2024-02-26T11:36:51;4.63;;;3.55;;
68821;SDS011;55834;50.870;4.606;2024-02-26T11:39:17;2.88;;;2.53;;
68821;SDS011;55834;50.870;4.606;2024-02-26T11:41:43;3.20;;;2.53;;
68821;SDS011;55834;50.870;4.606;2024-02-26T11:44:09;2.80;;;2.60;;
68821;SDS011;55834;50.870;4.606;2024-02-26T11:46:40;3.53;;;3.22;;
68821;SDS011;55834;50.870;4.606;2024-02-26T11:51:56;3.33;;;3.03;;
68821;SDS011;55834;50.870;4.606;2024-02-26T11:57:46;3.25;;;3.05;;
68821;SDS011;55834;50.870;4.606;2024-02-26T12:00:14;3.10;;;2.90;;
68821;SDS011;55834;50.870;4.606;2024-02-26T12:02:49;1.88;;;1.77;;
68821;SDS011;55834;50.870;4.606;2024-02-26T12:05:22;3.00;;;2.80;;
68821;SDS011;55834;50.870;4.606;2024-02-26T12:07:49;2.40;;;2.10;;
68821;SDS011;55834;50.870;4.606;2024-02-26T12:12:59;3.40;;;3.10;;
68821;SDS011;55834;50.870;4.606;2024-02-26T12:15:30;3.65;;;3.45;;
68821;SDS011;55834;50.870;4.606;2024-02-26T12:18:02;3.88;;;3.45;;
68821;SDS011;55834;50.870;4.606;2024-02-26T12:20:28;3.50;;;3.22;;
68821;SDS011;55834;50.870;4.606;2024-02-26T12:22:53;2.53;;;2.13;;
68821;SDS011;55834;50.870;4.606;2024-02-26T12:25:24;3.28;;;2.97;;
68821;SDS011;55834;50.870;4.606;2024-02-26T12:27:51;4.82;;;2.50;;
68821;SDS011;55834;50.870;4.606;2024-02-26T12:30:18;3.42;;;3.22;;
68821;SDS011;55834;50.870;4.606;2024-02-26T12:32:44;4.18;;;3.88;;
68821;SDS011;55834;50.870;4.606;2024-02-26T12:35:17;3.10;;;2.90;;
68821;SDS011;55834;50.870;4.606;2024-02-26T12:37:43;2.55;;;2.35;;
68821;SDS011;55834;50.870;4.606;2024-02-26T12:40:09;2.85;;;2.65;;
68821;SDS011;55834;50.870;4.606;2024-02-26T12:42:36;3.38;;;3.17;;
68821;SDS011;55834;50.870;4.606;2024-02-26T12:45:06;3.78;;;3.47;;
68821;SDS011;55834;50.870;4.606;2024-02-26T12:47:42;3.70;;;3.33;;
68821;SDS011;55834;50.870;4.606;2024-02-26T12:50:08;2.95;;;2.75;;
68821;SDS011;55834;50.870;4.606;2024-02-26T12:52:35;3.45;;;3.22;;
68821;SDS011;55834;50.870;4.606;2024-02-26T12:55:03;3.97;;;3.03;;
68821;SDS011;55834;50.870;4.606;2024-02-26T12:57:34;2.50;;;2.30;;
68821;SDS011;55834;50.870;4.606;2024-02-26T13:00:02;3.95;;;3.65;;
68821;SDS011;55834;50.870;4.606;2024-02-26T13:04:55;3.75;;;3.45;;
68821;SDS011;55834;50.870;4.606;2024-02-26T13:07:22;3.22;;;3.00;;
68821;SDS011;55834;50.870;4.606;2024-02-26T13:09:47;4.35;;;3.10;;
68821;SDS011;55834;50.870;4.606;2024-02-26T13:12:13;3.08;;;2.88;;
68821;SDS011;55834;50.870;4.606;2024-02-26T13:14:39;3.70;;;3.40;;
68821;SDS011;55834;50.870;4.606;2024-02-26T13:17:04;2.60;;;2.45;;
68821;SDS011;55834;50.870;4.606;2024-02-26T13:19:30;3.22;;;2.60;;
68821;SDS011;55834;50.870;4.606;2024-02-26T13:22:03;4.43;;;3.83;;
68821;SDS011;55834;50.870;4.606;2024-02-26T13:24:32;3.80;;;3.50;;
68821;SDS011;55834;50.870;4.606;2024-02-26T13:26:58;3.65;;;3.28;;
68821;SDS011;55834;50.870;4.606;2024-02-26T13:29:28;4.68;;;3.67;;
68821;SDS011;55834;50.870;4.606;2024-02-26T13:31:54;4.57;;;4.17;;
68821;SDS011;55834;50.870;4.606;2024-02-26T13:34:22;4.22;;;3.88;;
68821;SDS011;55834;50.870;4.606;2024-02-26T13:36:52;4.43;;;4.03;;
68821;SDS011;55834;50.870;4.606;2024-02-26T13:39:22;5.72;;;5.22;;
68821;SDS011;55834;50.870;4.606;2024-02-26T13:41:48;4.18;;;3.47;;
68821;SDS011;55834;50.870;4.606;2024-02-26T13:44:14;5.63;;;4.50;;
68821;SDS011;55834;50.870;4.606;2024-02-26T13:46:39;6.83;;;5.70;;
68821;SDS011;55834;50.870;4.606;2024-02-26T13:49:07;5.55;;;4.60;;
68821;SDS011;55834;50.870;4.606;2024-02-26T13:51:33;6.25;;;5.75;;
68821;SDS011;55834;50.870;4.606;2024-02-26T13:54:00;5.15;;;3.17;;
68821;SDS011;55834;50.870;4.606;2024-02-26T13:56:26;7.25;;;6.32;;
68821;SDS011;55834;50.870;4.606;2024-02-26T13:58:51;6.85;;;5.00;;
68821;SDS011;55834;50.870;4.606;2024-02-26T14:01:17;5.93;;;5.33;;
68821;SDS011;55834;50.870;4.606;2024-02-26T14:03:42;6.47;;;5.73;;
68821;SDS011;55834;50.870;4.606;2024-02-26T14:06:07;5.88;;;5.32;;
68821;SDS011;55834;50.870;4.606;2024-02-26T14:08:33;7.55;;;5.75;;
68821;SDS011;55834;50.870;4.606;2024-02-26T14:10:58;6.70;;;6.07;;
68821;SDS011;55834;50.870;4.606;2024-02-26T14:13:25;5.80;;;5.10;;
68821;SDS011;55834;50.870;4.606;2024-02-26T14:15:50;5.47;;;4.17;;
68821;SDS011;55834;50.870;4.606;2024-02-26T14:18:15;8.80;;;7.43;;
68821;SDS011;55834;50.870;4.606;2024-02-26T14:20:41;7.97;;;7.27;;
68821;SDS011;55834;50.870;4.606;2024-02-26T14:23:06;7.80;;;6.33;;
68821;SDS011;55834;50.870;4.606;2024-02-26T14:25:32;5.50;;;4.43;;
68821;SDS011;55834;50.870;4.606;2024-02-26T14:27:57;6.57;;;5.87;;
68821;SDS011;55834;50.870;4.606;2024-02-26T14:30:24;5.43;;;4.90;;
68821;SDS011;55834;50.870;4.606;2024-02-26T14:32:50;6.53;;;5.82;;
68821;SDS011;55834;50.870;4.606;2024-02-26T14:35:16;5.90;;;5.10;;
68821;SDS011;55834;50.870;4.606;2024-02-26T14:37:42;7.03;;;5.68;;
68821;SDS011;55834;50.870;4.606;2024-02-26T14:40:08;6.55;;;5.13;;
68821;SDS011;55834;50.870;4.606;2024-02-26T14:42:34;8.32;;;5.05;;
68821;SDS011;55834;50.870;4.606;2024-02-26T14:44:59;6.30;;;4.80;;
68821;SDS011;55834;50.870;4.606;2024-02-26T14:47:25;6.70;;;5.40;;
68821;SDS011;55834;50.870;4.606;2024-02-26T14:49:50;7.13;;;5.53;;
68821;SDS011;55834;50.870;4.606;2024-02-26T14:52:16;6.03;;;4.75;;
68821;SDS011;55834;50.870;4.606;2024-02-26T14:54:42;7.15;;;5.35;;
68821;SDS011;55834;50.870;4.606;2024-02-26T14:57:08;5.93;;;5.27;;
68821;SDS011;55834;50.870;4.606;2024-02-26T14:59:33;8.00;;;5.82;;
68821;SDS011;55834;50.870;4.606;2024-02-26T15:02:01;7.65;;;6.15;;